Time,TemperatureF,DewpointF,PressureIn,WindDirection,WindDirectionDegrees,WindSpeedMPH,WindSpeedGustMPH,Humidity,HourlyPrecipIn,Conditions,Clouds,dailyrainin,SoftwareType,DateUTC
2013-01-15 00:00:00,39.2,35.4,30.26,North,350,4.0,13.0,86,0.02,,,0.05,meteohub,2013-01-15 05:00:00,
2013-01-15 00:01:00,39.0,35.4,30.26,North,355,4.0,11.0,87,0.02,,,0.05,meteohub,2013-01-15 05:01:00,
2013-01-15 00:02:00,39.0,35.4,30.26,North,355,4.0,11.0,87,0.02,,,0.05,meteohub,2013-01-15 05:02:00,
2013-01-15 00:07:00,39.0,35.4,30.26,North,356,4.0,10.0,87,0.02,,,0.00,meteohub,2013-01-15 05:07:00,
2013-01-15 00:12:00,38.8,35.2,30.25,NNW,340,4.0,8.0,87,0.02,,,0.00,meteohub,2013-01-15 05:12:00,
2013-01-15 00:17:00,38.8,35.6,30.26,NNW,346,5.0,8.0,88,0.03,,,0.01,meteohub,2013-01-15 05:17:00,
2013-01-15 00:22:00,38.7,35.4,30.26,NNW,336,4.0,10.0,88,0.03,,,0.01,meteohub,2013-01-15 05:22:00,
2013-01-15 00:27:00,38.8,35.6,30.27,North,6,4.0,10.0,88,0.03,,,0.01,meteohub,2013-01-15 05:27:00,
2013-01-15 00:32:00,38.7,35.4,30.27,NW,312,4.0,10.0,88,0.02,,,0.01,meteohub,2013-01-15 05:32:00,
2013-01-15 00:37:00,38.7,35.4,30.28,North,356,5.0,8.0,88,0.02,,,0.01,meteohub,2013-01-15 05:37:00,
2013-01-15 00:42:00,38.7,35.8,30.29,NW,318,4.0,9.0,89,0.02,,,0.01,meteohub,2013-01-15 05:42:00,
2013-01-15 00:47:00,38.5,35.6,30.29,NNW,347,4.0,9.0,89,0.02,,,0.02,meteohub,2013-01-15 05:47:00,
2013-01-15 00:52:00,38.3,35.4,30.29,NW,324,2.0,9.0,89,0.02,,,0.02,meteohub,2013-01-15 05:52:00,
2013-01-15 00:57:00,38.1,35.2,30.29,NNW,342,3.0,9.0,89,0.03,,,0.03,meteohub,2013-01-15 05:57:00,
2013-01-15 01:02:00,37.9,35.1,30.29,NNW,329,5.0,7.0,89,0.03,,,0.03,meteohub,2013-01-15 06:02:00,
2013-01-15 01:07:00,37.8,35.1,30.28,NNE,23,0.0,6.0,90,0.04,,,0.04,meteohub,2013-01-15 06:07:00,
2013-01-15 01:12:00,37.8,35.4,30.28,NNW,328,3.0,6.0,91,0.04,,,0.04,meteohub,2013-01-15 06:12:00,
2013-01-15 01:17:00,37.6,35.2,30.28,NNW,338,1.0,6.0,91,0.03,,,0.04,meteohub,2013-01-15 06:17:00,
2013-01-15 01:22:00,37.6,35.2,30.27,NNW,338,2.0,6.0,91,0.04,,,0.05,meteohub,2013-01-15 06:22:00,
2013-01-15 01:27:00,37.6,35.2,30.27,NNW,340,2.0,6.0,91,0.04,,,0.05,meteohub,2013-01-15 06:27:00,
2013-01-15 01:32:00,37.4,35.1,30.27,NNE,33,1.0,6.0,91,0.04,,,0.05,meteohub,2013-01-15 06:32:00,
2013-01-15 01:37:00,37.2,34.9,30.27,NNE,29,1.0,4.0,91,0.05,,,0.05,meteohub,2013-01-15 06:37:00,
2013-01-15 01:42:00,37.2,35.1,30.26,NNE,30,2.0,5.0,92,0.04,,,0.06,meteohub,2013-01-15 06:42:00,
2013-01-15 01:47:00,37.0,34.9,30.27,North,354,1.0,5.0,92,0.05,,,0.07,meteohub,2013-01-15 06:47:00,
2013-01-15 01:52:00,36.9,34.7,30.27,NNW,338,3.0,5.0,92,0.06,,,0.07,meteohub,2013-01-15 06:52:00,
2013-01-15 01:57:00,36.9,35.1,30.28,NNW,340,4.0,5.0,93,0.05,,,0.08,meteohub,2013-01-15 06:57:00,
2013-01-15 02:02:00,36.9,35.1,30.28,NW,323,4.0,7.0,93,0.05,,,0.09,meteohub,2013-01-15 07:02:00,
2013-01-15 02:07:00,36.7,34.9,30.28,NW,322,5.0,7.0,93,0.06,,,0.09,meteohub,2013-01-15 07:07:00,
2013-01-15 02:12:00,36.7,35.1,30.29,WNW,287,6.0,7.0,94,0.06,,,0.10,meteohub,2013-01-15 07:12:00,
2013-01-15 02:17:00,36.7,34.9,30.29,NNW,342,4.0,9.0,93,0.07,,,0.11,meteohub,2013-01-15 07:17:00,
2013-01-15 02:22:00,36.3,34.5,30.28,North,349,5.0,10.0,93,0.07,,,0.12,meteohub,2013-01-15 07:22:00,
2013-01-15 02:28:00,36.3,34.5,30.28,North,1,4.0,10.0,93,0.07,,,0.12,meteohub,2013-01-15 07:28:00,
2013-01-15 02:33:00,36.3,34.7,30.28,North,353,2.0,10.0,94,0.08,,,0.13,meteohub,2013-01-15 07:33:00,
2013-01-15 02:38:00,36.1,34.3,30.27,NNW,344,6.0,9.0,93,0.07,,,0.13,meteohub,2013-01-15 07:38:00,
2013-01-15 02:43:00,36.1,34.3,30.27,NNW,338,4.0,9.0,93,0.07,,,0.13,meteohub,2013-01-15 07:43:00,
2013-01-15 02:48:00,36.0,34.2,30.25,NE,35,5.0,9.0,93,0.06,,,0.13,meteohub,2013-01-15 07:48:00,
2013-01-15 02:53:00,36.0,34.2,30.24,NNE,18,5.0,9.0,93,0.05,,,0.13,meteohub,2013-01-15 07:53:00,
2013-01-15 02:58:00,36.0,34.2,30.24,NNE,13,0.0,9.0,93,0.06,,,0.14,meteohub,2013-01-15 07:58:00,
2013-01-15 03:03:00,36.0,34.2,30.26,North,356,5.0,7.0,93,0.05,,,0.14,meteohub,2013-01-15 08:03:00,
2013-01-15 03:08:00,36.0,34.2,30.23,NE,55,4.0,6.0,93,0.04,,,0.14,meteohub,2013-01-15 08:08:00,
2013-01-15 03:13:00,36.0,34.3,30.26,NNW,328,6.0,6.0,94,0.03,,,0.14,meteohub,2013-01-15 08:13:00,
2013-01-15 03:18:00,36.1,34.5,30.27,NNW,345,5.0,7.0,94,0.03,,,0.15,meteohub,2013-01-15 08:18:00,
2013-01-15 03:23:00,36.1,34.5,30.27,NNW,342,6.0,9.0,94,0.04,,,0.16,meteohub,2013-01-15 08:23:00,
2013-01-15 03:28:00,36.0,34.3,30.27,NW,318,2.0,10.0,94,0.03,,,0.16,meteohub,2013-01-15 08:28:00,
2013-01-15 03:33:00,36.0,34.2,30.27,NW,321,5.0,10.0,93,0.03,,,0.16,meteohub,2013-01-15 08:33:00,
2013-01-15 03:38:00,35.8,34.0,30.28,NW,321,8.0,10.0,93,0.04,,,0.17,meteohub,2013-01-15 08:38:00,
2013-01-15 03:43:00,35.8,34.0,30.27,NNW,328,5.0,10.0,93,0.05,,,0.18,meteohub,2013-01-15 08:43:00,
2013-01-15 03:48:00,35.8,34.0,30.27,North,9,2.0,10.0,93,0.05,,,0.18,meteohub,2013-01-15 08:48:00,
2013-01-15 03:53:00,35.6,33.8,30.25,NNE,20,0.0,10.0,93,0.06,,,0.19,meteohub,2013-01-15 08:53:00,
2013-01-15 03:58:00,35.4,33.8,30.25,NE,37,1.0,10.0,94,0.05,,,0.19,meteohub,2013-01-15 08:58:00,
2013-01-15 04:03:00,35.4,33.8,30.25,NNE,26,2.0,8.0,94,0.06,,,0.20,meteohub,2013-01-15 09:03:00,
2013-01-15 04:08:00,35.4,33.8,30.24,NE,43,1.0,5.0,94,0.06,,,0.20,meteohub,2013-01-15 09:08:00,
2013-01-15 04:13:00,35.4,33.8,30.23,East,86,0.0,3.0,94,0.06,,,0.21,meteohub,2013-01-15 09:13:00,
2013-01-15 04:18:00,35.4,34.2,30.23,East,85,0.0,3.0,95,0.06,,,0.21,meteohub,2013-01-15 09:18:00,
2013-01-15 04:23:00,35.6,34.3,30.22,NNE,16,2.0,2.0,95,0.05,,,0.21,meteohub,2013-01-15 09:23:00,
2013-01-15 04:28:00,35.4,34.2,30.22,NNE,23,3.0,3.0,95,0.05,,,0.21,meteohub,2013-01-15 09:28:00,
2013-01-15 04:33:00,35.4,34.2,30.22,North,352,1.0,4.0,95,0.04,,,0.21,meteohub,2013-01-15 09:33:00,
2013-01-15 04:38:00,35.4,34.2,30.23,NNW,344,3.0,4.0,95,0.04,,,0.21,meteohub,2013-01-15 09:38:00,
2013-01-15 04:43:00,35.4,34.2,30.23,NNE,13,1.0,4.0,95,0.03,,,0.21,meteohub,2013-01-15 09:43:00,
2013-01-15 04:48:00,35.6,34.3,30.22,North,349,0.0,3.0,95,0.02,,,0.21,meteohub,2013-01-15 09:48:00,
2013-01-15 04:53:00,35.6,34.3,30.23,NW,324,1.0,3.0,95,0.02,,,0.21,meteohub,2013-01-15 09:53:00,
2013-01-15 04:58:00,35.4,34.2,30.24,NNW,330,2.0,3.0,95,0.01,,,0.21,meteohub,2013-01-15 09:58:00,
2013-01-15 05:03:00,35.6,34.3,30.23,NW,325,2.0,5.0,95,0.01,,,0.21,meteohub,2013-01-15 10:03:00,
2013-01-15 05:08:00,35.8,34.5,30.24,NNE,13,3.0,5.0,95,0.01,,,0.21,meteohub,2013-01-15 10:08:00,
2013-01-15 05:13:00,35.8,34.5,30.24,NNW,335,2.0,5.0,95,0.00,,,0.21,meteohub,2013-01-15 10:13:00,
2013-01-15 05:18:00,35.8,34.2,30.24,NNW,346,3.0,5.0,94,0.00,,,0.21,meteohub,2013-01-15 10:18:00,
2013-01-15 05:23:00,35.8,34.2,30.24,North,8,1.0,5.0,94,0.00,,,0.21,meteohub,2013-01-15 10:23:00,
2013-01-15 05:28:00,35.8,34.2,30.24,NW,305,0.0,5.0,94,0.00,,,0.21,meteohub,2013-01-15 10:28:00,
2013-01-15 05:33:00,35.8,34.2,30.24,North,8,0.0,5.0,94,0.00,,,0.21,meteohub,2013-01-15 10:33:00,
2013-01-15 05:38:00,35.8,34.2,30.24,NNW,337,1.0,3.0,94,0.00,,,0.21,meteohub,2013-01-15 10:38:00,
2013-01-15 05:43:00,35.8,34.2,30.24,NNW,328,0.0,2.0,94,0.00,,,0.21,meteohub,2013-01-15 10:43:00,
2013-01-15 05:48:00,36.0,34.3,30.24,ESE,119,0.0,2.0,94,0.00,,,0.21,meteohub,2013-01-15 10:48:00,
2013-01-15 05:53:00,36.0,34.3,30.24,ESE,109,0.0,2.0,94,0.00,,,0.21,meteohub,2013-01-15 10:53:00,
2013-01-15 05:58:00,36.0,34.3,30.25,North,11,0.0,2.0,94,0.00,,,0.21,meteohub,2013-01-15 10:58:00,
2013-01-15 06:03:00,36.0,34.7,30.25,NNW,342,0.0,2.0,95,0.00,,,0.21,meteohub,2013-01-15 11:03:00,
2013-01-15 06:08:00,36.0,34.7,30.25,NNW,330,0.0,1.0,95,0.00,,,0.21,meteohub,2013-01-15 11:08:00,
2013-01-15 06:13:00,36.0,34.7,30.25,NNW,344,0.0,1.0,95,0.00,,,0.21,meteohub,2013-01-15 11:13:00,
2013-01-15 06:18:00,36.0,34.7,30.25,NNW,328,0.0,1.0,95,0.00,,,0.21,meteohub,2013-01-15 11:18:00,
2013-01-15 06:23:00,36.0,34.7,30.26,NNW,347,1.0,1.0,95,0.00,,,0.21,meteohub,2013-01-15 11:23:00,
2013-01-15 06:28:00,36.0,34.7,30.26,NNW,338,1.0,2.0,95,0.00,,,0.21,meteohub,2013-01-15 11:28:00,
2013-01-15 06:33:00,36.0,34.3,30.26,NW,315,0.0,2.0,94,0.00,,,0.21,meteohub,2013-01-15 11:33:00,
2013-01-15 06:38:00,36.1,34.5,30.27,NNW,343,0.0,3.0,94,0.00,,,0.21,meteohub,2013-01-15 11:38:00,
2013-01-15 06:43:00,36.3,35.1,30.27,WNW,293,0.0,3.0,95,0.00,,,0.21,meteohub,2013-01-15 11:43:00,
2013-01-15 06:48:00,36.3,34.7,30.27,WNW,295,0.0,3.0,94,0.00,,,0.21,meteohub,2013-01-15 11:48:00,
2013-01-15 06:53:00,36.3,35.1,30.28,WNW,297,0.0,2.0,95,0.00,,,0.21,meteohub,2013-01-15 11:53:00,
2013-01-15 06:58:00,36.5,35.2,30.28,NW,315,1.0,2.0,95,0.00,,,0.21,meteohub,2013-01-15 11:58:00,
2013-01-15 07:03:00,36.5,35.2,30.28,NW,325,1.0,2.0,95,0.00,,,0.21,meteohub,2013-01-15 12:03:00,
2013-01-15 07:09:00,36.5,34.9,30.29,NNW,340,2.0,3.0,94,0.00,,,0.21,meteohub,2013-01-15 12:09:00,
2013-01-15 07:14:00,36.5,34.9,30.29,NNW,337,2.0,4.0,94,0.00,,,0.21,meteohub,2013-01-15 12:14:00,
2013-01-15 07:19:00,36.5,34.7,30.30,NNW,333,3.0,5.0,93,0.00,,,0.21,meteohub,2013-01-15 12:19:00,
2013-01-15 07:24:00,36.5,34.7,30.30,NNW,328,1.0,5.0,93,0.00,,,0.21,meteohub,2013-01-15 12:24:00,
2013-01-15 07:29:00,36.5,34.9,30.29,NNW,335,3.0,5.0,94,0.00,,,0.21,meteohub,2013-01-15 12:29:00,
2013-01-15 07:34:00,36.5,34.9,30.30,NNW,340,2.0,4.0,94,0.00,,,0.21,meteohub,2013-01-15 12:34:00,
2013-01-15 07:39:00,36.7,35.1,30.30,North,353,1.0,4.0,94,0.00,,,0.21,meteohub,2013-01-15 12:39:00,
2013-01-15 07:44:00,36.5,34.9,30.30,NNW,340,2.0,4.0,94,0.00,,,0.21,meteohub,2013-01-15 12:44:00,
2013-01-15 07:49:00,36.5,34.7,30.30,NNW,342,2.0,4.0,93,0.00,,,0.21,meteohub,2013-01-15 12:49:00,
2013-01-15 07:54:00,36.5,34.7,30.30,NNW,328,3.0,4.0,93,0.00,,,0.21,meteohub,2013-01-15 12:54:00,
2013-01-15 07:59:00,36.7,34.9,30.30,NNW,339,3.0,4.0,93,0.00,,,0.21,meteohub,2013-01-15 12:59:00,
2013-01-15 08:04:00,36.7,34.9,30.31,NNW,347,3.0,4.0,93,0.00,,,0.21,meteohub,2013-01-15 13:04:00,
2013-01-15 08:09:00,36.7,34.9,30.30,NNW,345,1.0,4.0,93,0.00,,,0.21,meteohub,2013-01-15 13:09:00,
2013-01-15 08:14:00,36.7,34.9,30.31,NNW,334,1.0,4.0,93,0.00,,,0.21,meteohub,2013-01-15 13:14:00,
2013-01-15 08:19:00,36.7,34.9,30.31,NW,322,3.0,4.0,93,0.00,,,0.21,meteohub,2013-01-15 13:19:00,
2013-01-15 08:24:00,36.7,34.5,30.31,NNW,338,2.0,4.0,92,0.00,,,0.21,meteohub,2013-01-15 13:24:00,
2013-01-15 08:29:00,36.9,34.7,30.31,NNW,340,2.0,4.0,92,0.00,,,0.21,meteohub,2013-01-15 13:29:00,
2013-01-15 08:34:00,36.9,34.5,30.31,NNE,15,3.0,4.0,91,0.00,,,0.21,meteohub,2013-01-15 13:34:00,
2013-01-15 08:39:00,36.9,34.5,30.31,North,359,1.0,5.0,91,0.00,,,0.21,meteohub,2013-01-15 13:39:00,
2013-01-15 08:44:00,36.9,34.5,30.31,North,352,1.0,5.0,91,0.00,,,0.21,meteohub,2013-01-15 13:44:00,
2013-01-15 08:49:00,36.9,34.2,30.31,NNW,335,1.0,5.0,90,0.00,,,0.21,meteohub,2013-01-15 13:49:00,
2013-01-15 08:54:00,37.0,34.3,30.31,North,349,4.0,5.0,90,0.00,,,0.21,meteohub,2013-01-15 13:54:00,
2013-01-15 08:59:00,37.0,34.2,30.31,NNW,335,2.0,6.0,89,0.00,,,0.21,meteohub,2013-01-15 13:59:00,
2013-01-15 09:04:00,37.2,34.0,30.31,North,356,2.0,6.0,88,0.00,,,0.21,meteohub,2013-01-15 14:04:00,
2013-01-15 09:09:00,37.2,33.4,30.31,North,354,5.0,6.0,86,0.00,,,0.21,meteohub,2013-01-15 14:09:00,
2013-01-15 09:14:00,37.2,33.1,30.32,NW,319,2.0,6.0,85,0.00,,,0.21,meteohub,2013-01-15 14:14:00,
2013-01-15 09:19:00,37.2,33.1,30.32,North,352,1.0,8.0,85,0.00,,,0.21,meteohub,2013-01-15 14:19:00,
2013-01-15 09:24:00,37.2,32.9,30.32,North,359,1.0,8.0,84,0.00,,,0.21,meteohub,2013-01-15 14:24:00,
2013-01-15 09:29:00,37.2,32.9,30.32,NNE,19,2.0,8.0,84,0.00,,,0.21,meteohub,2013-01-15 14:29:00,
2013-01-15 09:34:00,37.4,32.7,30.32,NNE,13,3.0,5.0,83,0.00,,,0.21,meteohub,2013-01-15 14:34:00,
2013-01-15 09:39:00,37.6,32.9,30.32,NNW,342,4.0,7.0,83,0.00,,,0.21,meteohub,2013-01-15 14:39:00,
2013-01-15 09:44:00,37.6,32.9,30.32,NNE,33,2.0,7.0,83,0.00,,,0.21,meteohub,2013-01-15 14:44:00,
2013-01-15 09:49:00,37.6,32.9,30.32,NW,323,5.0,7.0,83,0.00,,,0.21,meteohub,2013-01-15 14:49:00,
2013-01-15 09:54:00,37.8,32.5,30.32,North,350,4.0,7.0,81,0.00,,,0.21,meteohub,2013-01-15 14:54:00,
2013-01-15 09:59:00,37.8,32.2,30.32,NW,315,4.0,8.0,80,0.00,,,0.21,meteohub,2013-01-15 14:59:00,
2013-01-15 10:04:00,37.9,32.4,30.32,North,350,2.0,11.0,80,0.00,,,0.21,meteohub,2013-01-15 15:04:00,
2013-01-15 10:09:00,38.1,32.7,30.32,NE,51,2.0,11.0,81,0.00,,,0.21,meteohub,2013-01-15 15:09:00,
2013-01-15 10:14:00,38.1,32.2,30.32,North,349,3.0,11.0,79,0.00,,,0.21,meteohub,2013-01-15 15:14:00,
2013-01-15 10:19:00,38.3,32.4,30.32,NNW,343,5.0,8.0,79,0.00,,,0.21,meteohub,2013-01-15 15:19:00,
2013-01-15 10:24:00,38.3,32.0,30.32,NNW,333,2.0,7.0,78,0.00,,,0.21,meteohub,2013-01-15 15:24:00,
2013-01-15 10:29:00,38.5,31.8,30.32,NNE,20,3.0,7.0,77,0.00,,,0.21,meteohub,2013-01-15 15:29:00,
2013-01-15 10:34:00,38.5,31.6,30.31,NNW,344,6.0,8.0,76,0.00,,,0.21,meteohub,2013-01-15 15:34:00,
2013-01-15 10:40:00,38.5,31.6,30.31,North,11,3.0,10.0,76,0.00,,,0.21,meteohub,2013-01-15 15:40:00,
2013-01-15 10:45:00,38.5,31.8,30.31,NE,39,3.0,11.0,77,0.00,,,0.21,meteohub,2013-01-15 15:45:00,
2013-01-15 10:50:00,38.7,31.8,30.31,NNE,23,3.0,11.0,76,0.00,,,0.21,meteohub,2013-01-15 15:50:00,
2013-01-15 10:55:00,38.7,31.1,30.30,NNE,25,6.0,9.0,74,0.00,,,0.21,meteohub,2013-01-15 15:55:00,
2013-01-15 11:00:00,38.7,31.5,30.30,NNW,340,2.0,9.0,75,0.00,,,0.21,meteohub,2013-01-15 16:00:00,
2013-01-15 11:05:00,38.7,31.1,30.30,NNE,18,7.0,10.0,74,0.00,,,0.21,meteohub,2013-01-15 16:05:00,
2013-01-15 11:10:00,38.8,31.3,30.30,NW,325,2.0,10.0,74,0.00,,,0.21,meteohub,2013-01-15 16:10:00,
2013-01-15 11:15:00,38.8,31.3,30.29,North,9,3.0,10.0,74,0.00,,,0.21,meteohub,2013-01-15 16:15:00,
2013-01-15 11:20:00,39.0,31.1,30.30,NNW,347,5.0,9.0,73,0.00,,,0.21,meteohub,2013-01-15 16:20:00,
2013-01-15 11:25:00,39.0,31.5,30.28,NE,37,5.0,10.0,74,0.00,,,0.21,meteohub,2013-01-15 16:25:00,
2013-01-15 11:30:00,39.0,30.7,30.28,NW,308,7.0,10.0,72,0.00,,,0.21,meteohub,2013-01-15 16:30:00,
2013-01-15 11:35:00,39.0,30.7,30.29,NNW,340,3.0,10.0,72,0.00,,,0.21,meteohub,2013-01-15 16:35:00,
2013-01-15 11:40:00,39.0,30.4,30.28,North,350,5.0,9.0,71,0.00,,,0.21,meteohub,2013-01-15 16:40:00,
2013-01-15 11:45:00,39.2,30.6,30.29,North,11,5.0,9.0,71,0.00,,,0.21,meteohub,2013-01-15 16:45:00,
2013-01-15 11:50:00,39.4,31.1,30.29,NNE,23,2.0,9.0,72,0.00,,,0.21,meteohub,2013-01-15 16:50:00,
2013-01-15 11:55:00,39.4,30.7,30.28,NW,325,3.0,7.0,71,0.00,,,0.21,meteohub,2013-01-15 16:55:00,
2013-01-15 12:00:00,39.4,30.7,30.29,NW,318,3.0,7.0,71,0.00,,,0.21,meteohub,2013-01-15 17:00:00,
2013-01-15 12:05:00,39.6,30.9,30.28,NNW,345,3.0,7.0,71,0.00,,,0.21,meteohub,2013-01-15 17:05:00,
2013-01-15 12:10:00,39.6,30.9,30.30,NNW,330,5.0,6.0,71,0.00,,,0.21,meteohub,2013-01-15 17:10:00,
2013-01-15 12:15:00,39.6,30.6,30.29,NNW,342,3.0,6.0,70,0.00,,,0.21,meteohub,2013-01-15 17:15:00,
2013-01-15 12:20:00,39.7,31.1,30.29,NW,320,4.0,7.0,71,0.00,,,0.21,meteohub,2013-01-15 17:20:00,
2013-01-15 12:25:00,39.9,31.6,30.29,NNE,16,1.0,7.0,72,0.00,,,0.21,meteohub,2013-01-15 17:25:00,
2013-01-15 12:30:00,39.9,31.3,30.28,NNE,23,3.0,5.0,71,0.00,,,0.21,meteohub,2013-01-15 17:30:00,
2013-01-15 12:35:00,39.9,30.9,30.28,NW,323,4.0,5.0,70,0.00,,,0.21,meteohub,2013-01-15 17:35:00,
2013-01-15 12:40:00,39.9,30.6,30.28,NNW,348,6.0,6.0,69,0.00,,,0.21,meteohub,2013-01-15 17:40:00,
2013-01-15 12:46:00,39.9,30.6,30.28,NNE,13,4.0,6.0,69,0.00,,,0.21,meteohub,2013-01-15 17:46:00,
2013-01-15 12:51:00,39.9,30.6,30.27,North,11,4.0,7.0,69,0.00,,,0.21,meteohub,2013-01-15 17:51:00,
2013-01-15 12:56:00,40.1,30.7,30.27,NNW,333,3.0,7.0,69,0.00,,,0.21,meteohub,2013-01-15 17:56:00,
2013-01-15 13:01:00,40.3,30.9,30.27,NNE,19,2.0,7.0,69,0.00,,,0.21,meteohub,2013-01-15 18:01:00,
2013-01-15 13:06:00,40.5,30.7,30.27,NNW,330,5.0,7.0,68,0.00,,,0.21,meteohub,2013-01-15 18:06:00,
2013-01-15 13:11:00,40.5,30.4,30.27,NE,35,1.0,8.0,67,0.00,,,0.21,meteohub,2013-01-15 18:11:00,
2013-01-15 13:16:00,40.6,30.9,30.27,NW,319,3.0,8.0,68,0.00,,,0.21,meteohub,2013-01-15 18:16:00,
2013-01-15 13:21:00,40.6,30.9,30.27,NNE,23,3.0,6.0,68,0.00,,,0.21,meteohub,2013-01-15 18:21:00,
2013-01-15 13:26:00,40.6,30.6,30.27,NNW,337,4.0,4.0,67,0.00,,,0.21,meteohub,2013-01-15 18:26:00,
2013-01-15 13:31:00,40.6,30.9,30.27,NNW,340,4.0,5.0,68,0.00,,,0.21,meteohub,2013-01-15 18:31:00,
2013-01-15 13:36:00,40.6,30.6,30.27,NW,310,3.0,5.0,67,0.00,,,0.21,meteohub,2013-01-15 18:36:00,
2013-01-15 13:41:00,40.6,30.6,30.27,North,357,1.0,5.0,67,0.00,,,0.21,meteohub,2013-01-15 18:41:00,
2013-01-15 13:46:00,40.8,30.7,30.27,NW,316,3.0,5.0,67,0.00,,,0.21,meteohub,2013-01-15 18:46:00,
2013-01-15 13:51:00,40.8,30.7,30.27,NNW,335,2.0,5.0,67,0.00,,,0.21,meteohub,2013-01-15 18:51:00,
2013-01-15 13:56:00,40.8,30.7,30.27,NNW,339,2.0,5.0,67,0.00,,,0.21,meteohub,2013-01-15 18:56:00,
2013-01-15 14:01:00,41.0,31.3,30.27,NNE,23,2.0,5.0,68,0.00,,,0.21,meteohub,2013-01-15 19:01:00,
2013-01-15 14:06:00,41.0,31.3,30.27,NNE,29,2.0,5.0,68,0.00,,,0.21,meteohub,2013-01-15 19:06:00,
2013-01-15 14:11:00,41.0,30.9,30.27,East,89,2.0,5.0,67,0.00,,,0.21,meteohub,2013-01-15 19:11:00,
2013-01-15 14:16:00,41.0,30.9,30.27,NE,55,0.0,5.0,67,0.00,,,0.21,meteohub,2013-01-15 19:16:00,
2013-01-15 14:21:00,41.0,30.9,30.27,NE,49,2.0,4.0,67,0.00,,,0.21,meteohub,2013-01-15 19:21:00,
2013-01-15 14:26:00,41.0,30.9,30.27,East,94,0.0,4.0,67,0.00,,,0.21,meteohub,2013-01-15 19:26:00,
2013-01-15 14:32:00,41.2,31.1,30.27,NNW,333,2.0,4.0,67,0.00,,,0.21,meteohub,2013-01-15 19:32:00,
2013-01-15 14:36:00,41.2,31.1,30.27,North,351,3.0,5.0,67,0.00,,,0.21,meteohub,2013-01-15 19:36:00,
2013-01-15 14:41:00,41.2,31.1,30.27,North,355,3.0,5.0,67,0.00,,,0.21,meteohub,2013-01-15 19:41:00,
2013-01-15 14:47:00,41.2,31.5,30.27,NE,49,4.0,5.0,68,0.00,,,0.21,meteohub,2013-01-15 19:47:00,
2013-01-15 14:52:00,41.2,30.7,30.27,NNE,29,2.0,7.0,66,0.00,,,0.21,meteohub,2013-01-15 19:52:00,
2013-01-15 14:57:00,41.2,30.7,30.27,NNW,334,2.0,7.0,66,0.00,,,0.21,meteohub,2013-01-15 19:57:00,
2013-01-15 15:01:00,41.2,30.7,30.26,NE,47,4.0,7.0,66,0.00,,,0.21,meteohub,2013-01-15 20:01:00,
2013-01-15 15:07:00,41.2,31.1,30.26,NE,36,0.0,5.0,67,0.00,,,0.21,meteohub,2013-01-15 20:07:00,
2013-01-15 15:12:00,41.2,30.7,30.26,NW,320,1.0,5.0,66,0.00,,,0.21,meteohub,2013-01-15 20:12:00,
2013-01-15 15:17:00,41.2,30.7,30.26,North,357,2.0,5.0,66,0.00,,,0.21,meteohub,2013-01-15 20:17:00,
2013-01-15 15:22:00,41.2,30.4,30.26,NNW,347,0.0,3.0,65,0.00,,,0.21,meteohub,2013-01-15 20:22:00,
2013-01-15 15:27:00,41.2,30.7,30.26,NNE,33,0.0,2.0,66,0.00,,,0.21,meteohub,2013-01-15 20:27:00,
2013-01-15 15:32:00,41.2,31.1,30.26,North,349,1.0,2.0,67,0.00,,,0.21,meteohub,2013-01-15 20:32:00,
2013-01-15 15:37:00,41.2,30.7,30.26,NNW,330,2.0,2.0,66,0.00,,,0.21,meteohub,2013-01-15 20:37:00,
2013-01-15 15:42:00,41.2,31.1,30.27,NNW,340,2.0,3.0,67,0.00,,,0.21,meteohub,2013-01-15 20:42:00,
2013-01-15 15:47:00,41.2,31.1,30.27,NNW,345,3.0,3.0,67,0.00,,,0.21,meteohub,2013-01-15 20:47:00,
2013-01-15 15:52:00,41.0,30.9,30.26,NNW,342,1.0,5.0,67,0.00,,,0.21,meteohub,2013-01-15 20:52:00,
2013-01-15 15:57:00,40.8,30.7,30.26,NNE,33,1.0,5.0,67,0.00,,,0.21,meteohub,2013-01-15 20:57:00,
2013-01-15 16:02:00,40.8,31.1,30.25,NNE,13,0.0,5.0,68,0.00,,,0.21,meteohub,2013-01-15 21:02:00,
2013-01-15 16:07:00,40.8,31.5,30.25,NNE,13,0.0,2.0,69,0.00,,,0.21,meteohub,2013-01-15 21:07:00,
2013-01-15 16:12:00,40.8,31.8,30.25,East,81,0.0,2.0,70,0.00,,,0.21,meteohub,2013-01-15 21:12:00,
2013-01-15 16:17:00,40.6,30.9,30.25,NW,319,0.0,0.0,68,0.00,,,0.21,meteohub,2013-01-15 21:17:00,
2013-01-15 16:22:00,40.6,30.9,30.26,NW,319,0.0,0.0,68,0.00,,,0.21,meteohub,2013-01-15 21:22:00,
2013-01-15 16:27:00,40.6,30.6,30.27,NW,319,0.0,0.0,67,0.00,,,0.21,meteohub,2013-01-15 21:27:00,
2013-01-15 16:32:00,40.6,30.9,30.27,NNW,330,0.0,0.0,68,0.00,,,0.21,meteohub,2013-01-15 21:32:00,
2013-01-15 16:37:00,40.5,30.7,30.27,NW,322,0.0,1.0,68,0.00,,,0.21,meteohub,2013-01-15 21:37:00,
2013-01-15 16:42:00,40.5,31.5,30.27,West,281,0.0,1.0,70,0.00,,,0.21,meteohub,2013-01-15 21:42:00,
2013-01-15 16:47:00,40.3,31.6,30.27,West,280,0.0,1.0,71,0.00,,,0.21,meteohub,2013-01-15 21:47:00,
2013-01-15 16:52:00,39.9,31.3,30.27,NW,305,1.0,1.0,71,0.00,,,0.21,meteohub,2013-01-15 21:52:00,
2013-01-15 16:57:00,39.9,32.0,30.28,NW,310,1.0,2.0,73,0.00,,,0.21,meteohub,2013-01-15 21:57:00,
2013-01-15 17:02:00,39.7,32.2,30.28,NW,314,2.0,3.0,74,0.00,,,0.21,meteohub,2013-01-15 22:02:00,
2013-01-15 17:07:00,39.6,31.6,30.27,NW,304,0.0,3.0,73,0.00,,,0.21,meteohub,2013-01-15 22:07:00,
2013-01-15 17:12:00,39.6,31.6,30.28,WNW,301,1.0,3.0,73,0.00,,,0.21,meteohub,2013-01-15 22:12:00,
2013-01-15 17:17:00,39.6,31.6,30.28,WNW,295,2.0,3.0,73,0.00,,,0.21,meteohub,2013-01-15 22:17:00,
2013-01-15 17:22:00,39.6,31.6,30.28,WNW,302,1.0,4.0,73,0.00,,,0.21,meteohub,2013-01-15 22:22:00,
2013-01-15 17:27:00,39.6,31.6,30.27,WNW,295,1.0,4.0,73,0.00,,,0.21,meteohub,2013-01-15 22:27:00,
2013-01-15 17:32:00,39.6,31.6,30.28,NW,312,0.0,3.0,73,0.00,,,0.21,meteohub,2013-01-15 22:32:00,
2013-01-15 17:37:00,39.6,31.6,30.28,NNW,342,1.0,2.0,73,0.00,,,0.21,meteohub,2013-01-15 22:37:00,
2013-01-15 17:42:00,39.4,31.5,30.27,NNW,340,1.0,2.0,73,0.00,,,0.21,meteohub,2013-01-15 22:42:00,
2013-01-15 17:47:00,39.4,31.5,30.27,North,358,2.0,3.0,73,0.00,,,0.21,meteohub,2013-01-15 22:47:00,
2013-01-15 17:52:00,39.0,31.1,30.27,NNW,347,2.0,3.0,73,0.00,,,0.21,meteohub,2013-01-15 22:52:00,
2013-01-15 17:57:00,39.0,31.1,30.28,NNW,342,2.0,3.0,73,0.00,,,0.21,meteohub,2013-01-15 22:57:00,
2013-01-15 18:02:00,39.0,31.1,30.28,NNW,335,0.0,3.0,73,0.00,,,0.21,meteohub,2013-01-15 23:02:00,
2013-01-15 18:07:00,39.0,31.1,30.28,NNW,334,1.0,3.0,73,0.00,,,0.21,meteohub,2013-01-15 23:07:00,
2013-01-15 18:12:00,39.0,31.1,30.28,North,356,2.0,3.0,73,0.00,,,0.21,meteohub,2013-01-15 23:12:00,
2013-01-15 18:17:00,39.0,31.1,30.28,NNW,348,1.0,3.0,73,0.00,,,0.21,meteohub,2013-01-15 23:17:00,
2013-01-15 18:22:00,38.8,31.3,30.28,North,352,0.0,3.0,74,0.00,,,0.21,meteohub,2013-01-15 23:22:00,
2013-01-15 18:27:00,38.8,30.9,30.28,NNW,346,0.0,2.0,73,0.00,,,0.21,meteohub,2013-01-15 23:27:00,
2013-01-15 18:32:00,38.8,31.6,30.28,NNW,346,0.0,2.0,75,0.00,,,0.21,meteohub,2013-01-15 23:32:00,
2013-01-15 18:37:00,38.5,31.8,30.27,NNE,33,0.0,2.0,77,0.00,,,0.21,meteohub,2013-01-15 23:37:00,
2013-01-15 18:42:00,38.1,31.6,30.27,NNE,33,0.0,1.0,77,0.00,,,0.21,meteohub,2013-01-15 23:42:00,
2013-01-15 18:47:00,37.9,31.6,30.27,NNE,33,0.0,1.0,78,0.00,,,0.21,meteohub,2013-01-15 23:47:00,
2013-01-15 18:52:00,37.8,31.5,30.28,NNE,33,0.0,1.0,78,0.00,,,0.21,meteohub,2013-01-15 23:52:00,
2013-01-15 18:57:00,37.8,31.5,30.28,NW,319,0.0,1.0,78,0.00,,,0.21,meteohub,2013-01-15 23:57:00,
2013-01-15 19:02:00,37.8,31.8,30.28,NW,323,0.0,1.0,79,0.00,,,0.21,meteohub,2013-01-16 00:02:00,
2013-01-15 19:07:00,37.8,31.3,30.28,North,6,1.0,1.0,77,0.00,,,0.21,meteohub,2013-01-16 00:07:00,
2013-01-15 19:12:00,37.8,31.5,30.27,North,358,1.0,2.0,78,0.00,,,0.21,meteohub,2013-01-16 00:12:00,
2013-01-15 19:17:00,37.6,31.3,30.27,North,11,1.0,2.0,78,0.00,,,0.21,meteohub,2013-01-16 00:17:00,
2013-01-15 19:22:00,37.6,31.3,30.27,North,11,0.0,2.0,78,0.00,,,0.21,meteohub,2013-01-16 00:22:00,
2013-01-15 19:27:00,37.6,31.6,30.27,North,352,0.0,2.0,79,0.00,,,0.21,meteohub,2013-01-16 00:27:00,
2013-01-15 19:32:00,37.4,31.5,30.26,NNE,33,1.0,2.0,79,0.00,,,0.21,meteohub,2013-01-16 00:32:00,
2013-01-15 19:37:00,37.6,31.3,30.26,NW,325,0.0,3.0,78,0.00,,,0.21,meteohub,2013-01-16 00:37:00,
2013-01-15 19:42:00,37.6,31.1,30.27,NW,320,3.0,3.0,77,0.00,,,0.21,meteohub,2013-01-16 00:42:00,
2013-01-15 19:47:00,37.8,30.9,30.27,North,356,2.0,5.0,76,0.00,,,0.21,meteohub,2013-01-16 00:47:00,
2013-01-15 19:52:00,37.8,30.6,30.27,NNW,335,3.0,5.0,75,0.00,,,0.21,meteohub,2013-01-16 00:52:00,
2013-01-15 19:57:00,37.8,30.6,30.27,NNW,328,1.0,5.0,75,0.00,,,0.21,meteohub,2013-01-16 00:57:00,
2013-01-15 20:02:00,37.8,30.2,30.27,NNW,333,3.0,5.0,74,0.00,,,0.21,meteohub,2013-01-16 01:02:00,
2013-01-15 20:07:00,37.9,29.7,30.28,NNW,343,3.0,5.0,72,0.00,,,0.21,meteohub,2013-01-16 01:07:00,
2013-01-15 20:12:00,38.1,29.5,30.29,NNW,330,4.0,5.0,71,0.00,,,0.21,meteohub,2013-01-16 01:12:00,
2013-01-15 20:17:00,38.1,29.1,30.28,North,4,3.0,6.0,70,0.00,,,0.21,meteohub,2013-01-16 01:17:00,
2013-01-15 20:22:00,38.3,29.3,30.28,North,352,5.0,6.0,70,0.00,,,0.21,meteohub,2013-01-16 01:22:00,
2013-01-15 20:27:00,38.1,29.1,30.28,NNW,328,2.0,6.0,70,0.00,,,0.21,meteohub,2013-01-16 01:27:00,
2013-01-15 20:32:00,38.1,29.1,30.28,NNW,334,3.0,6.0,70,0.00,,,0.21,meteohub,2013-01-16 01:32:00,
2013-01-15 20:37:00,38.1,29.1,30.27,NNW,333,2.0,6.0,70,0.00,,,0.21,meteohub,2013-01-16 01:37:00,
2013-01-15 20:42:00,38.1,29.5,30.27,NW,309,2.0,6.0,71,0.00,,,0.21,meteohub,2013-01-16 01:42:00,
2013-01-15 20:47:00,38.1,29.5,30.27,NNW,328,3.0,6.0,71,0.00,,,0.21,meteohub,2013-01-16 01:47:00,
2013-01-15 20:52:00,38.1,29.5,30.27,NNW,338,2.0,5.0,71,0.00,,,0.21,meteohub,2013-01-16 01:52:00,
2013-01-15 20:57:00,37.9,29.3,30.27,NNW,338,2.0,5.0,71,0.00,,,0.21,meteohub,2013-01-16 01:57:00,
2013-01-15 21:02:00,37.9,29.3,30.27,NW,311,2.0,5.0,71,0.00,,,0.21,meteohub,2013-01-16 02:02:00,
2013-01-15 21:07:00,37.9,29.3,30.27,North,354,0.0,5.0,71,0.00,,,0.21,meteohub,2013-01-16 02:07:00,
2013-01-15 21:12:00,37.9,29.3,30.27,NNW,348,1.0,5.0,71,0.00,,,0.21,meteohub,2013-01-16 02:12:00,
2013-01-15 21:17:00,37.9,29.3,30.26,NNE,33,0.0,5.0,71,0.00,,,0.21,meteohub,2013-01-16 02:17:00,
2013-01-15 21:22:00,37.9,29.3,30.26,NNW,333,0.0,4.0,71,0.00,,,0.21,meteohub,2013-01-16 02:22:00,
2013-01-15 21:27:00,37.9,29.3,30.26,NNW,338,1.0,4.0,71,0.00,,,0.21,meteohub,2013-01-16 02:27:00,
2013-01-15 21:32:00,37.8,29.1,30.25,NNE,25,2.0,3.0,71,0.00,,,0.21,meteohub,2013-01-16 02:32:00,
2013-01-15 21:37:00,37.8,29.1,30.25,NNW,337,1.0,3.0,71,0.00,,,0.21,meteohub,2013-01-16 02:37:00,
2013-01-15 21:42:00,37.8,29.5,30.26,NNW,333,3.0,3.0,72,0.00,,,0.21,meteohub,2013-01-16 02:42:00,
2013-01-15 21:47:00,37.8,29.1,30.27,NNW,343,2.0,3.0,71,0.00,,,0.21,meteohub,2013-01-16 02:47:00,
2013-01-15 21:52:00,37.8,29.5,30.26,NNW,345,1.0,5.0,72,0.00,,,0.21,meteohub,2013-01-16 02:52:00,
2013-01-15 21:57:00,37.8,29.5,30.27,North,356,1.0,5.0,72,0.00,,,0.21,meteohub,2013-01-16 02:57:00,
2013-01-15 22:02:00,37.8,29.5,30.26,North,352,0.0,4.0,72,0.00,,,0.21,meteohub,2013-01-16 03:02:00,
2013-01-15 22:07:00,37.8,29.5,30.26,NNW,328,1.0,3.0,72,0.00,,,0.21,meteohub,2013-01-16 03:07:00,
2013-01-15 22:12:00,37.8,29.1,30.26,NNW,338,0.0,3.0,71,0.00,,,0.21,meteohub,2013-01-16 03:12:00,
2013-01-15 22:17:00,37.8,29.5,30.27,NNW,337,0.0,2.0,72,0.00,,,0.21,meteohub,2013-01-16 03:17:00,
2013-01-15 22:23:00,37.6,29.1,30.27,NNW,346,1.0,3.0,71,0.00,,,0.21,meteohub,2013-01-16 03:23:00,
2013-01-15 22:28:00,37.6,29.1,30.27,NW,322,0.0,3.0,71,0.00,,,0.21,meteohub,2013-01-16 03:28:00,
2013-01-15 22:33:00,37.6,29.1,30.27,NW,325,0.0,3.0,71,0.00,,,0.21,meteohub,2013-01-16 03:33:00,
2013-01-15 22:38:00,37.6,29.1,30.27,NNW,336,0.0,3.0,71,0.00,,,0.21,meteohub,2013-01-16 03:38:00,
2013-01-15 22:43:00,37.6,29.1,30.25,North,352,0.0,2.0,71,0.00,,,0.21,meteohub,2013-01-16 03:43:00,
2013-01-15 22:48:00,37.6,29.3,30.25,NE,49,0.0,1.0,72,0.00,,,0.21,meteohub,2013-01-16 03:48:00,
2013-01-15 22:53:00,37.6,29.3,30.25,ENE,68,0.0,1.0,72,0.00,,,0.21,meteohub,2013-01-16 03:53:00,
2013-01-15 22:58:00,37.6,29.3,30.25,East,84,0.0,1.0,72,0.00,,,0.21,meteohub,2013-01-16 03:58:00,
2013-01-15 23:03:00,37.6,29.3,30.25,ENE,72,2.0,2.0,72,0.00,,,0.21,meteohub,2013-01-16 04:03:00,
2013-01-15 23:08:00,37.4,28.9,30.23,NE,55,3.0,3.0,71,0.00,,,0.21,meteohub,2013-01-16 04:08:00,
2013-01-15 23:13:00,37.4,29.1,30.23,NE,55,0.0,3.0,72,0.00,,,0.21,meteohub,2013-01-16 04:13:00,
2013-01-15 23:18:00,37.2,29.1,30.24,NNW,330,1.0,3.0,72,0.00,,,0.21,meteohub,2013-01-16 04:18:00,
2013-01-15 23:23:00,37.2,29.1,30.24,NW,322,0.0,3.0,72,0.00,,,0.21,meteohub,2013-01-16 04:23:00,
2013-01-15 23:28:00,37.2,28.8,30.24,NNE,27,2.0,4.0,71,0.00,,,0.21,meteohub,2013-01-16 04:28:00,
2013-01-15 23:33:00,37.2,28.8,30.24,NNW,345,2.0,4.0,71,0.00,,,0.21,meteohub,2013-01-16 04:33:00,
2013-01-15 23:38:00,37.2,28.8,30.23,NNE,33,1.0,4.0,71,0.00,,,0.21,meteohub,2013-01-16 04:38:00,
2013-01-15 23:43:00,37.2,28.8,30.24,NNW,338,1.0,5.0,71,0.00,,,0.21,meteohub,2013-01-16 04:43:00,
2013-01-15 23:48:00,37.2,29.1,30.23,NNE,22,2.0,5.0,72,0.00,,,0.21,meteohub,2013-01-16 04:48:00,
2013-01-15 23:53:00,37.2,29.1,30.23,ENE,65,0.0,5.0,72,0.00,,,0.21,meteohub,2013-01-16 04:53:00,
2013-01-15 23:58:00,37.2,29.1,30.23,NNE,33,1.0,5.0,72,0.00,,,0.21,meteohub,2013-01-16 04:58:00,